sensor_id;sensor_type;location;lat;lon;timestamp;pressure;altitude;pressure_sealevel;temperature;humidity
42001;BME280;27689;48.390;10.856;2023-01-28T00:01:08;96531.41;;;-0.73;100.00
42001;BME280;27689;48.390;10.856;2023-01-28T00:03:52;96524.75;;;-0.77;100.00
42001;BME280;27689;48.390;10.856;2023-01-28T00:06:36;96528.38;;;-0.62;100.00
42001;BME280;27689;48.390;10.856;2023-01-28T00:09:20;96521.78;;;-0.67;100.00
42001;BME280;27689;48.390;10.856;2023-01-28T00:12:05;96521.78;;;-0.67;100.00
42001;BME280;27689;48.390;10.856;2023-01-28T00:14:49;96514.53;;;-0.78;100.00
42001;BME280;27689;48.390;10.856;2023-01-28T00:17:33;96525.44;;;-0.73;100.00
42001;BME280;27689;48.390;10.856;2023-01-28T00:20:17;96522.97;;;-0.75;100.00
42001;BME280;27689;48.390;10.856;2023-01-28T00:23:01;96521.91;;;-0.71;100.00
42001;BME280;27689;48.390;10.856;2023-01-28T00:25:45;96522.81;;;-0.72;100.00
42001;BME280;27689;48.390;10.856;2023-01-28T00:28:29;96521.06;;;-0.71;100.00
42001;BME280;27689;48.390;10.856;2023-01-28T00:31:18;96519.97;;;-0.65;100.00
42001;BME280;27689;48.390;10.856;2023-01-28T00:34:03;96520.09;;;-0.68;100.00
42001;BME280;27689;48.390;10.856;2023-01-28T00:36:47;96515.00;;;-0.70;100.00
42001;BME280;27689;48.390;10.856;2023-01-28T00:39:39;96522.66;;;-0.68;100.00
42001;BME280;27689;48.390;10.856;2023-01-28T00:42:23;96528.53;;;-0.65;100.00
42001;BME280;27689;48.390;10.856;2023-01-28T00:45:07;96519.97;;;-0.65;100.00
42001;BME280;27689;48.390;10.856;2023-01-28T00:47:52;96523.09;;;-0.59;100.00
42001;BME280;27689;48.390;10.856;2023-01-28T00:50:36;96521.72;;;-0.66;100.00
42001;BME280;27689;48.390;10.856;2023-01-28T00:53:22;96527.38;;;-0.59;100.00
42001;BME280;27689;48.390;10.856;2023-01-28T00:56:07;96520.75;;;-0.63;100.00
42001;BME280;27689;48.390;10.856;2023-01-28T00:58:53;96514.94;;;-0.68;100.00
42001;BME280;27689;48.390;10.856;2023-01-28T01:01:37;96524.16;;;-0.63;100.00
42001;BME280;27689;48.390;10.856;2023-01-28T01:04:21;96530.31;;;-0.67;100.00
42001;BME280;27689;48.390;10.856;2023-01-28T01:07:09;96522.47;;;-0.64;100.00
42001;BME280;27689;48.390;10.856;2023-01-28T01:09:53;96523.38;;;-0.65;100.00
42001;BME280;27689;48.390;10.856;2023-01-28T01:12:37;96527.75;;;-0.67;100.00
42001;BME280;27689;48.390;10.856;2023-01-28T01:15:21;96529.50;;;-0.67;100.00
42001;BME280;27689;48.390;10.856;2023-01-28T01:18:05;96536.09;;;-0.62;100.00
42001;BME280;27689;48.390;10.856;2023-01-28T01:20:49;96537.84;;;-0.62;100.00
42001;BME280;27689;48.390;10.856;2023-01-28T01:23:33;96534.44;;;-0.63;100.00
42001;BME280;27689;48.390;10.856;2023-01-28T01:26:17;96545.50;;;-0.61;100.00
42001;BME280;27689;48.390;10.856;2023-01-28T01:29:01;96522.66;;;-0.68;100.00
42001;BME280;27689;48.390;10.856;2023-01-28T01:31:45;96536.25;;;-0.65;100.00
42001;BME280;27689;48.390;10.856;2023-01-28T01:34:29;96538.75;;;-0.63;100.00
42001;BME280;27689;48.390;10.856;2023-01-28T01:37:13;96544.84;;;-0.66;100.00
42001;BME280;27689;48.390;10.856;2023-01-28T01:39:57;96538.16;;;-0.70;100.00
42001;BME280;27689;48.390;10.856;2023-01-28T01:42:42;96538.88;;;-0.66;100.00
42001;BME280;27689;48.390;10.856;2023-01-28T01:45:34;96544.09;;;-0.68;100.00
42001;BME280;27689;48.390;10.856;2023-01-28T01:48:21;96553.47;;;-0.67;100.00
42001;BME280;27689;48.390;10.856;2023-01-28T01:51:14;96549.88;;;-0.63;100.00
42001;BME280;27689;48.390;10.856;2023-01-28T01:54:00;96546.25;;;-0.59;100.00
42001;BME280;27689;48.390;10.856;2023-01-28T01:56:46;96550.72;;;-0.62;100.00
42001;BME280;27689;48.390;10.856;2023-01-28T01:59:32;96548.25;;;-0.65;100.00
42001;BME280;27689;48.390;10.856;2023-01-28T02:02:17;96552.56;;;-0.66;100.00
42001;BME280;27689;48.390;10.856;2023-01-28T02:05:02;96549.09;;;-0.65;100.00
42001;BME280;27689;48.390;10.856;2023-01-28T02:07:49;96548.25;;;-0.65;100.00
42001;BME280;27689;48.390;10.856;2023-01-28T02:10:34;96543.88;;;-0.63;100.00
42001;BME280;27689;48.390;10.856;2023-01-28T02:13:20;96545.41;;;-0.59;100.00
42001;BME280;27689;48.390;10.856;2023-01-28T02:19:53;96553.47;;;-0.67;100.00
42001;BME280;27689;48.390;10.856;2023-01-28T02:29:08;96555.78;;;-0.61;100.00
42001;BME280;27689;48.390;10.856;2023-01-28T02:32:09;96551.75;;;-0.66;100.00
42001;BME280;27689;48.390;10.856;2023-01-28T02:35:11;96555.28;;;-0.69;100.00
42001;BME280;27689;48.390;10.856;2023-01-28T02:38:06;96561.25;;;-0.68;100.00
42001;BME280;27689;48.390;10.856;2023-01-28T02:41:01;96567.09;;;-0.65;100.00
42001;BME280;27689;48.390;10.856;2023-01-28T02:43:52;96556.69;;;-0.62;100.00
42001;BME280;27689;48.390;10.856;2023-01-28T02:46:37;96572.13;;;-0.62;100.00
42001;BME280;27689;48.390;10.856;2023-01-28T02:49:42;96566.16;;;-0.62;100.00
42001;BME280;27689;48.390;10.856;2023-01-28T02:56:28;96567.09;;;-0.65;100.00
42001;BME280;27689;48.390;10.856;2023-01-28T02:59:27;96570.88;;;-0.53;100.00
42001;BME280;27689;48.390;10.856;2023-01-28T03:05:31;96559.47;;;-0.66;100.00
42001;BME280;27689;48.390;10.856;2023-01-28T03:08:18;96557.00;;;-0.69;100.00
42001;BME280;27689;48.390;10.856;2023-01-28T03:11:21;96563.00;;;-0.69;100.00
42001;BME280;27689;48.390;10.856;2023-01-28T03:14:24;96570.72;;;-0.69;100.00
42001;BME280;27689;48.390;10.856;2023-01-28T03:24:08;96565.56;;;-0.69;100.00
42001;BME280;27689;48.390;10.856;2023-01-28T03:27:18;96567.31;;;-0.69;100.00
42001;BME280;27689;48.390;10.856;2023-01-28T03:30:29;96569.81;;;-0.68;100.00
42001;BME280;27689;48.390;10.856;2023-01-28T03:33:36;96573.34;;;-0.71;100.00
42001;BME280;27689;48.390;10.856;2023-01-28T03:36:39;96580.94;;;-0.67;100.00
42001;BME280;27689;48.390;10.856;2023-01-28T03:39:30;96578.44;;;-0.69;100.00
42001;BME280;27689;48.390;10.856;2023-01-28T03:42:14;96578.50;;;-0.71;100.00
42001;BME280;27689;48.390;10.856;2023-01-28T03:44:59;96582.03;;;-0.73;100.00
42001;BME280;27689;48.390;10.856;2023-01-28T03:47:44;96586.28;;;-0.72;100.00
42001;BME280;27689;48.390;10.856;2023-01-28T03:50:28;96592.13;;;-0.68;100.00
42001;BME280;27689;48.390;10.856;2023-01-28T03:53:13;96590.50;;;-0.71;100.00
42001;BME280;27689;48.390;10.856;2023-01-28T03:55:58;96596.38;;;-0.67;100.00
42001;BME280;27689;48.390;10.856;2023-01-28T03:58:42;96587.88;;;-0.69;100.00
42001;BME280;27689;48.390;10.856;2023-01-28T04:01:29;96589.69;;;-0.72;100.00
42001;BME280;27689;48.390;10.856;2023-01-28T04:04:12;96595.59;;;-0.69;100.00
42001;BME280;27689;48.390;10.856;2023-01-28T04:07:07;96604.22;;;-0.71;100.00
42001;BME280;27689;48.390;10.856;2023-01-28T04:09:53;96598.09;;;-0.68;100.00
42001;BME280;27689;48.390;10.856;2023-01-28T04:12:37;96596.44;;;-0.69;100.00
42001;BME280;27689;48.390;10.856;2023-01-28T04:15:25;96605.94;;;-0.71;100.00
42001;BME280;27689;48.390;10.856;2023-01-28T04:18:09;96605.06;;;-0.70;100.00
42001;BME280;27689;48.390;10.856;2023-01-28T04:20:53;96593.81;;;-0.67;100.00
42001;BME280;27689;48.390;10.856;2023-01-28T04:23:37;96603.97;;;-0.64;100.00
42001;BME280;27689;48.390;10.856;2023-01-28T04:26:20;96595.72;;;-0.73;100.00
42001;BME280;27689;48.390;10.856;2023-01-28T04:29:05;96604.28;;;-0.72;100.00
42001;BME280;27689;48.390;10.856;2023-01-28T04:31:49;96605.81;;;-0.68;100.00
42001;BME280;27689;48.390;10.856;2023-01-28T04:34:33;96617.44;;;-0.59;100.00
42001;BME280;27689;48.390;10.856;2023-01-28T04:37:16;96618.28;;;-0.59;100.00
42001;BME280;27689;48.390;10.856;2023-01-28T04:40:00;96617.59;;;-0.62;100.00
42001;BME280;27689;48.390;10.856;2023-01-28T04:42:52;96615.03;;;-0.62;100.00
42001;BME280;27689;48.390;10.856;2023-01-28T04:45:36;96618.44;;;-0.62;100.00
42001;BME280;27689;48.390;10.856;2023-01-28T04:48:19;96616.19;;;-0.69;100.00
42001;BME280;27689;48.390;10.856;2023-01-28T04:51:03;96618.63;;;-0.66;100.00
42001;BME280;27689;48.390;10.856;2023-01-28T04:53:47;96634.78;;;-0.63;100.00
42001;BME280;27689;48.390;10.856;2023-01-28T04:56:31;96632.25;;;-0.64;100.00
42001;BME280;27689;48.390;10.856;2023-01-28T04:59:15;96637.34;;;-0.63;100.00
42001;BME280;27689;48.390;10.856;2023-01-28T05:01:59;96630.47;;;-0.62;100.00
42001;BME280;27689;48.390;10.856;2023-01-28T05:04:43;96628.84;;;-0.65;100.00
42001;BME280;27689;48.390;10.856;2023-01-28T05:07:27;96636.38;;;-0.60;100.00
42001;BME280;27689;48.390;10.856;2023-01-28T05:10:11;96630.78;;;-0.70;100.00
42001;BME280;27689;48.390;10.856;2023-01-28T05:12:55;96639.28;;;-0.68;100.00
42001;BME280;27689;48.390;10.856;2023-01-28T05:15:39;96649.31;;;-0.62;100.00
42001;BME280;27689;48.390;10.856;2023-01-28T05:18:23;96646.94;;;-0.66;100.00
42001;BME280;27689;48.390;10.856;2023-01-28T05:21:07;96649.03;;;-0.56;100.00
42001;BME280;27689;48.390;10.856;2023-01-28T05:23:51;96642.38;;;-0.60;100.00
42001;BME280;27689;48.390;10.856;2023-01-28T05:26:35;96646.94;;;-0.66;100.00
42001;BME280;27689;48.390;10.856;2023-01-28T05:29:20;96652.91;;;-0.66;100.00
42001;BME280;27689;48.390;10.856;2023-01-28T05:32:04;96644.47;;;-0.69;100.00
42001;BME280;27689;48.390;10.856;2023-01-28T05:34:48;96644.41;;;-0.68;100.00
42001;BME280;27689;48.390;10.856;2023-01-28T05:37:32;96650.41;;;-0.67;100.00
42001;BME280;27689;48.390;10.856;2023-01-28T05:40:16;96652.91;;;-0.66;100.00
42001;BME280;27689;48.390;10.856;2023-01-28T05:43:00;96650.28;;;-0.64;100.00
42001;BME280;27689;48.390;10.856;2023-01-28T05:45:45;96655.47;;;-0.66;100.00
42001;BME280;27689;48.390;10.856;2023-01-28T05:48:30;96664.88;;;-0.65;100.00
42001;BME280;27689;48.390;10.856;2023-01-28T05:51:14;96653.88;;;-0.68;100.00
42001;BME280;27689;48.390;10.856;2023-01-28T05:53:58;96646.34;;;-0.73;100.00
42001;BME280;27689;48.390;10.856;2023-01-28T05:56:42;96658.06;;;-0.66;100.00
42001;BME280;27689;48.390;10.856;2023-01-28T05:59:26;96658.94;;;-0.67;100.00
42001;BME280;27689;48.390;10.856;2023-01-28T06:02:10;96657.16;;;-0.65;100.00
42001;BME280;27689;48.390;10.856;2023-01-28T06:04:54;96660.50;;;-0.63;100.00
42001;BME280;27689;48.390;10.856;2023-01-28T06:07:38;96656.31;;;-0.65;100.00
42001;BME280;27689;48.390;10.856;2023-01-28T06:10:22;96662.25;;;-0.63;100.00
42001;BME280;27689;48.390;10.856;2023-01-28T06:13:06;96666.31;;;-0.59;100.00
42001;BME280;27689;48.390;10.856;2023-01-28T06:15:50;96658.75;;;-0.62;100.00
42001;BME280;27689;48.390;10.856;2023-01-28T06:18:34;96666.53;;;-0.64;100.00
42001;BME280;27689;48.390;10.856;2023-01-28T06:21:18;96680.31;;;-0.65;100.00
42001;BME280;27689;48.390;10.856;2023-01-28T06:24:02;96672.66;;;-0.66;100.00
42001;BME280;27689;48.390;10.856;2023-01-28T06:26:46;96678.75;;;-0.69;100.00
42001;BME280;27689;48.390;10.856;2023-01-28T06:29:30;96680.50;;;-0.69;100.00
42001;BME280;27689;48.390;10.856;2023-01-28T06:32:14;96677.97;;;-0.71;100.00
42001;BME280;27689;48.390;10.856;2023-01-28T06:34:57;96680.44;;;-0.68;100.00
42001;BME280;27689;48.390;10.856;2023-01-28T06:37:41;96686.34;;;-0.66;100.00
42001;BME280;27689;48.390;10.856;2023-01-28T06:40:26;96683.91;;;-0.69;100.00
42001;BME280;27689;48.390;10.856;2023-01-28T06:43:10;96697.59;;;-0.68;100.00
42001;BME280;27689;48.390;10.856;2023-01-28T06:45:54;96711.31;;;-0.68;100.00
42001;BME280;27689;48.390;10.856;2023-01-28T06:48:38;96704.47;;;-0.69;100.00
42001;BME280;27689;48.390;10.856;2023-01-28T06:51:22;96712.91;;;-0.65;100.00
42001;BME280;27689;48.390;10.856;2023-01-28T06:54:06;96706.88;;;-0.64;100.00
42001;BME280;27689;48.390;10.856;2023-01-28T06:56:50;96716.19;;;-0.62;100.00
42001;BME280;27689;48.390;10.856;2023-01-28T06:59:34;96721.28;;;-0.60;100.00
42001;BME280;27689;48.390;10.856;2023-01-28T07:02:17;96724.75;;;-0.61;100.00
42001;BME280;27689;48.390;10.856;2023-01-28T07:05:02;96715.22;;;-0.59;100.00
42001;BME280;27689;48.390;10.856;2023-01-28T07:07:46;96724.69;;;-0.60;100.00
42001;BME280;27689;48.390;10.856;2023-01-28T07:10:30;96732.41;;;-0.60;100.00
42001;BME280;27689;48.390;10.856;2023-01-28T07:13:14;96723.97;;;-0.63;100.00
42001;BME280;27689;48.390;10.856;2023-01-28T07:15:58;96735.00;;;-0.60;100.00
42001;BME280;27689;48.390;10.856;2023-01-28T07:18:42;96739.09;;;-0.56;100.00
42001;BME280;27689;48.390;10.856;2023-01-28T07:21:26;96733.16;;;-0.58;100.00
42001;BME280;27689;48.390;10.856;2023-01-28T07:24:10;96734.72;;;-0.54;100.00
42001;BME280;27689;48.390;10.856;2023-01-28T07:26:54;96738.78;;;-0.48;100.00
42001;BME280;27689;48.390;10.856;2023-01-28T07:29:38;96744.50;;;-0.42;100.00
42001;BME280;27689;48.390;10.856;2023-01-28T07:32:22;96739.22;;;-0.39;100.00
42001;BME280;27689;48.390;10.856;2023-01-28T07:35:07;96744.50;;;-0.42;100.00
42001;BME280;27689;48.390;10.856;2023-01-28T07:37:56;96750.16;;;-0.54;100.00
42001;BME280;27689;48.390;10.856;2023-01-28T07:40:40;96757.94;;;-0.55;100.00
42001;BME280;27689;48.390;10.856;2023-01-28T07:43:25;96757.38;;;-0.62;100.00
42001;BME280;27689;48.390;10.856;2023-01-28T07:46:09;96760.31;;;-0.51;100.00
42001;BME280;27689;48.390;10.856;2023-01-28T07:48:53;96762.13;;;-0.53;100.00
42001;BME280;27689;48.390;10.856;2023-01-28T07:51:37;96770.84;;;-0.57;100.00
42001;BME280;27689;48.390;10.856;2023-01-28T07:54:21;96763.91;;;-0.55;100.00
42001;BME280;27689;48.390;10.856;2023-01-28T07:57:08;96766.31;;;-0.50;100.00
42001;BME280;27689;48.390;10.856;2023-01-28T07:59:52;96764.03;;;-0.58;100.00
42001;BME280;27689;48.390;10.856;2023-01-28T08:02:36;96775.00;;;-0.53;100.00
42001;BME280;27689;48.390;10.856;2023-01-28T08:05:20;96764.81;;;-0.56;100.00
42001;BME280;27689;48.390;10.856;2023-01-28T08:08:04;96774.88;;;-0.50;100.00
42001;BME280;27689;48.390;10.856;2023-01-28T08:10:49;96774.81;;;-0.48;100.00
42001;BME280;27689;48.390;10.856;2023-01-28T08:13:33;96782.47;;;-0.47;100.00
42001;BME280;27689;48.390;10.856;2023-01-28T08:16:18;96779.06;;;-0.47;100.00
42001;BME280;27689;48.390;10.856;2023-01-28T08:19:02;96784.16;;;-0.46;100.00
42001;BME280;27689;48.390;10.856;2023-01-28T08:21:46;96789.13;;;-0.43;100.00
42001;BME280;27689;48.390;10.856;2023-01-28T08:24:30;96786.50;;;-0.41;100.00
42001;BME280;27689;48.390;10.856;2023-01-28T08:27:14;96783.25;;;-0.45;100.00
42001;BME280;27689;48.390;10.856;2023-01-28T08:29:58;96793.03;;;-0.32;100.00
42001;BME280;27689;48.390;10.856;2023-01-28T08:32:42;96796.44;;;-0.32;100.00
42001;BME280;27689;48.390;10.856;2023-01-28T08:35:27;96795.59;;;-0.32;100.00
42001;BME280;27689;48.390;10.856;2023-01-28T08:38:13;96797.28;;;-0.31;100.00
42001;BME280;27689;48.390;10.856;2023-01-28T08:40:58;96789.50;;;-0.30;100.00
42001;BME280;27689;48.390;10.856;2023-01-28T08:43:42;96794.50;;;-0.27;100.00
42001;BME280;27689;48.390;10.856;2023-01-28T08:46:27;96793.28;;;-0.18;100.00
42001;BME280;27689;48.390;10.856;2023-01-28T08:49:11;96797.53;;;-0.17;100.00
42001;BME280;27689;48.390;10.856;2023-01-28T08:51:55;96797.53;;;-0.17;100.00
42001;BME280;27689;48.390;10.856;2023-01-28T08:54:38;96796.63;;;-0.16;100.00
42001;BME280;27689;48.390;10.856;2023-01-28T08:57:23;96804.97;;;-0.11;100.00
42001;BME280;27689;48.390;10.856;2023-01-28T09:00:08;96801.38;;;-0.07;100.00
42001;BME280;27689;48.390;10.856;2023-01-28T09:02:53;96799.72;;;-0.08;100.00
42001;BME280;27689;48.390;10.856;2023-01-28T09:05:38;96802.34;;;-0.10;100.00
42001;BME280;27689;48.390;10.856;2023-01-28T09:08:22;96805.88;;;-0.12;100.00
42001;BME280;27689;48.390;10.856;2023-01-28T09:11:06;96809.22;;;-0.10;100.00
42001;BME280;27689;48.390;10.856;2023-01-28T09:13:50;96811.81;;;-0.10;100.00
42001;BME280;27689;48.390;10.856;2023-01-28T09:16:34;96810.06;;;-0.10;100.00
42001;BME280;27689;48.390;10.856;2023-01-28T09:19:18;96811.75;;;-0.09;100.00
42001;BME280;27689;48.390;10.856;2023-01-28T09:22:03;96820.25;;;-0.07;100.00
42001;BME280;27689;48.390;10.856;2023-01-28T09:24:47;96809.75;;;-0.02;100.00
42001;BME280;27689;48.390;10.856;2023-01-28T09:27:31;96805.09;;;0.06;100.00
42001;BME280;27689;48.390;10.856;2023-01-28T09:30:15;96803.50;;;0.04;100.00
42001;BME280;27689;48.390;10.856;2023-01-28T09:32:59;96811.69;;;0.13;100.00
42001;BME280;27689;48.390;10.856;2023-01-28T09:35:43;96810.50;;;0.20;100.00
42001;BME280;27689;48.390;10.856;2023-01-28T09:38:28;96817.19;;;0.24;100.00
42001;BME280;27689;48.390;10.856;2023-01-28T09:41:25;96820.47;;;0.28;100.00
42001;BME280;27689;48.390;10.856;2023-01-28T09:44:46;96827.16;;;0.32;100.00
42001;BME280;27689;48.390;10.856;2023-01-28T09:47:47;96826.19;;;0.34;100.00
42001;BME280;27689;48.390;10.856;2023-01-28T09:50:43;96823.53;;;0.36;100.00
42001;BME280;27689;48.390;10.856;2023-01-28T09:53:32;96830.50;;;0.34;100.00
42001;BME280;27689;48.390;10.856;2023-01-28T09:56:29;96821.88;;;0.35;100.00
42001;BME280;27689;48.390;10.856;2023-01-28T09:59:20;96825.03;;;0.42;100.00
42001;BME280;27689;48.390;10.856;2023-01-28T10:02:36;96829.59;;;0.35;100.00
42001;BME280;27689;48.390;10.856;2023-01-28T10:12:03;96822.88;;;0.51;100.00
42001;BME280;27689;48.390;10.856;2023-01-28T10:17:53;96811.53;;;0.55;100.00
42001;BME280;27689;48.390;10.856;2023-01-28T10:20:48;96812.06;;;0.62;100.00
42001;BME280;27689;48.390;10.856;2023-01-28T10:23:40;96808.25;;;0.70;100.00
42001;BME280;27689;48.390;10.856;2023-01-28T10:26:32;96808.03;;;0.75;100.00
42001;BME280;27689;48.390;10.856;2023-01-28T10:29:23;96798.97;;;0.66;100.00
42001;BME280;27689;48.390;10.856;2023-01-28T10:32:36;96811.09;;;0.83;100.00
42001;BME280;27689;48.390;10.856;2023-01-28T10:35:22;96808.38;;;0.86;100.00
42001;BME280;27689;48.390;10.856;2023-01-28T10:38:11;96807.53;;;0.67;100.00
42001;BME280;27689;48.390;10.856;2023-01-28T10:41:00;96818.06;;;0.81;100.00
42001;BME280;27689;48.390;10.856;2023-01-28T10:43:44;96806.97;;;0.79;100.00
42001;BME280;27689;48.390;10.856;2023-01-28T10:46:32;96815.16;;;0.89;100.00
42001;BME280;27689;48.390;10.856;2023-01-28T10:49:21;96806.97;;;0.98;100.00
42001;BME280;27689;48.390;10.856;2023-01-28T10:52:14;96813.88;;;0.97;100.00
42001;BME280;27689;48.390;10.856;2023-01-28T10:55:04;96816.19;;;1.03;100.00
42001;BME280;27689;48.390;10.856;2023-01-28T10:57:48;96808.72;;;0.97;100.00
42001;BME280;27689;48.390;10.856;2023-01-28T11:00:34;96809.25;;;1.04;98.72
42001;BME280;27689;48.390;10.856;2023-01-28T11:03:20;96808.84;;;0.94;99.00
42001;BME280;27689;48.390;10.856;2023-01-28T11:06:04;96809.00;;;0.91;100.00
42001;BME280;27689;48.390;10.856;2023-01-28T11:08:48;96807.88;;;0.97;100.00
42001;BME280;27689;48.390;10.856;2023-01-28T11:11:32;96814.78;;;0.96;100.00
42001;BME280;27689;48.390;10.856;2023-01-28T11:14:21;96798.97;;;0.85;100.00
42001;BME280;27689;48.390;10.856;2023-01-28T11:17:15;96803.56;;;0.97;100.00
42001;BME280;27689;48.390;10.856;2023-01-28T11:20:12;96802.00;;;1.12;97.05
42001;BME280;27689;48.390;10.856;2023-01-28T11:23:01;96797.13;;;1.06;99.30
42001;BME280;27689;48.390;10.856;2023-01-28T11:25:46;96790.28;;;1.05;100.00
42001;BME280;27689;48.390;10.856;2023-01-28T11:28:30;96789.66;;;1.19;99.95
42001;BME280;27689;48.390;10.856;2023-01-28T11:31:15;96794.22;;;1.31;100.00
42001;BME280;27689;48.390;10.856;2023-01-28T11:34:00;96791.78;;;1.28;99.38
42001;BME280;27689;48.390;10.856;2023-01-28T11:36:54;96795.06;;;1.31;100.00
42001;BME280;27689;48.390;10.856;2023-01-28T11:39:43;96792.50;;;1.31;99.85
42001;BME280;27689;48.390;10.856;2023-01-28T11:42:29;96789.22;;;1.28;99.70
42001;BME280;27689;48.390;10.856;2023-01-28T11:45:27;96795.41;;;1.24;100.00
42001;BME280;27689;48.390;10.856;2023-01-28T11:51:28;96797.56;;;1.33;96.87
42001;BME280;27689;48.390;10.856;2023-01-28T11:57:25;96800.13;;;1.16;98.47
42001;BME280;27689;48.390;10.856;2023-01-28T12:00:27;96795.34;;;1.25;98.05
42001;BME280;27689;48.390;10.856;2023-01-28T12:16:06;96798.03;;;1.41;95.81
42001;BME280;27689;48.390;10.856;2023-01-28T12:22:12;96803.03;;;1.27;97.12
42001;BME280;27689;48.390;10.856;2023-01-28T12:25:19;96791.47;;;1.34;94.67
42001;BME280;27689;48.390;10.856;2023-01-28T12:37:20;96790.22;;;1.42;94.15
42001;BME280;27689;48.390;10.856;2023-01-28T12:40:15;96795.53;;;1.39;94.05
42001;BME280;27689;48.390;10.856;2023-01-28T12:43:41;96791.88;;;1.26;96.00
42001;BME280;27689;48.390;10.856;2023-01-28T12:46:28;96786.00;;;1.23;96.50
42001;BME280;27689;48.390;10.856;2023-01-28T12:52:21;96781.53;;;1.26;97.71
42001;BME280;27689;48.390;10.856;2023-01-28T12:55:29;96780.84;;;1.23;99.58
42001;BME280;27689;48.390;10.856;2023-01-28T12:58:24;96786.03;;;1.40;96.19
42001;BME280;27689;48.390;10.856;2023-01-28T13:01:26;96782.16;;;1.31;96.00
42001;BME280;27689;48.390;10.856;2023-01-28T13:04:33;96790.56;;;1.35;96.32
42001;BME280;27689;48.390;10.856;2023-01-28T13:07:42;96792.09;;;1.39;94.06
42001;BME280;27689;48.390;10.856;2023-01-28T13:13:31;96788.00;;;1.35;92.80
42001;BME280;27689;48.390;10.856;2023-01-28T13:16:16;96790.13;;;1.27;93.81
42001;BME280;27689;48.390;10.856;2023-01-28T13:19:06;96792.91;;;1.22;96.06
42001;BME280;27689;48.390;10.856;2023-01-28T13:21:50;96795.06;;;1.31;93.07
42001;BME280;27689;48.390;10.856;2023-01-28T13:24:34;96790.13;;;1.27;93.08
42001;BME280;27689;48.390;10.856;2023-01-28T13:27:24;96798.78;;;1.26;93.75
42001;BME280;27689;48.390;10.856;2023-01-28T13:30:28;96797.22;;;1.22;93.54
42001;BME280;27689;48.390;10.856;2023-01-28T13:33:29;96804.22;;;1.20;93.56
42001;BME280;27689;48.390;10.856;2023-01-28T13:39:06;96810.38;;;1.17;92.07
42001;BME280;27689;48.390;10.856;2023-01-28T13:42:21;96809.69;;;1.14;92.48
42001;BME280;27689;48.390;10.856;2023-01-28T13:45:32;96804.38;;;1.17;93.09
42001;BME280;27689;48.390;10.856;2023-01-28T13:48:33;96816.50;;;1.15;94.62
42001;BME280;27689;48.390;10.856;2023-01-28T13:51:34;96811.34;;;1.15;95.28
42001;BME280;27689;48.390;10.856;2023-01-28T13:54:21;96821.59;;;1.16;96.68
42001;BME280;27689;48.390;10.856;2023-01-28T13:57:30;96811.22;;;1.18;97.58
42001;BME280;27689;48.390;10.856;2023-01-28T14:00:40;96810.50;;;1.14;98.08
42001;BME280;27689;48.390;10.856;2023-01-28T14:12:26;96837.03;;;1.18;97.93
42001;BME280;27689;48.390;10.856;2023-01-28T14:15:31;96838.19;;;1.11;98.96
42001;BME280;27689;48.390;10.856;2023-01-28T14:18:24;96832.97;;;1.12;99.43
42001;BME280;27689;48.390;10.856;2023-01-28T14:21:15;96839.66;;;1.16;98.48
42001;BME280;27689;48.390;10.856;2023-01-28T14:23:59;96833.03;;;1.11;99.07
42001;BME280;27689;48.390;10.856;2023-01-28T14:27:26;96840.00;;;1.09;100.00
42001;BME280;27689;48.390;10.856;2023-01-28T14:33:02;96851.38;;;1.04;100.00
42001;BME280;27689;48.390;10.856;2023-01-28T14:35:47;96849.44;;;1.10;98.97
42001;BME280;27689;48.390;10.856;2023-01-28T14:38:38;96846.97;;;1.06;98.37
42001;BME280;27689;48.390;10.856;2023-01-28T14:41:25;96857.59;;;1.00;99.66
42001;BME280;27689;48.390;10.856;2023-01-28T14:44:21;96850.00;;;0.97;100.00
42001;BME280;27689;48.390;10.856;2023-01-28T14:47:41;96862.19;;;0.94;100.00
42001;BME280;27689;48.390;10.856;2023-01-28T14:50:35;96862.91;;;0.97;100.00
42001;BME280;27689;48.390;10.856;2023-01-28T15:02:27;96864.78;;;0.94;100.00
42001;BME280;27689;48.390;10.856;2023-01-28T15:05:21;96863.53;;;1.02;100.00
42001;BME280;27689;48.390;10.856;2023-01-28T15:08:05;96862.91;;;0.97;100.00
42001;BME280;27689;48.390;10.856;2023-01-28T15:10:51;96870.69;;;0.96;100.00
42001;BME280;27689;48.390;10.856;2023-01-28T15:13:39;96872.44;;;0.95;100.00
42001;BME280;27689;48.390;10.856;2023-01-28T15:16:27;96872.03;;;0.86;100.00
42001;BME280;27689;48.390;10.856;2023-01-28T15:19:13;96877.31;;;0.83;100.00
42001;BME280;27689;48.390;10.856;2023-01-28T15:22:00;96881.56;;;0.84;100.00
42001;BME280;27689;48.390;10.856;2023-01-28T15:24:45;96888.41;;;0.85;100.00
42001;BME280;27689;48.390;10.856;2023-01-28T15:27:29;96872.22;;;0.81;100.00
42001;BME280;27689;48.390;10.856;2023-01-28T15:30:29;96885.13;;;0.81;100.00
42001;BME280;27689;48.390;10.856;2023-01-28T15:33:15;96892.78;;;0.83;100.00
42001;BME280;27689;48.390;10.856;2023-01-28T15:36:04;96887.63;;;0.83;100.00
42001;BME280;27689;48.390;10.856;2023-01-28T15:38:48;96887.06;;;0.76;100.00
42001;BME280;27689;48.390;10.856;2023-01-28T15:41:38;96894.72;;;0.78;100.00
42001;BME280;27689;48.390;10.856;2023-01-28T15:44:43;96890.41;;;0.78;100.00
42001;BME280;27689;48.390;10.856;2023-01-28T15:47:31;96902.34;;;0.81;100.00
42001;BME280;27689;48.390;10.856;2023-01-28T15:50:22;96900.66;;;0.80;100.00
42001;BME280;27689;48.390;10.856;2023-01-28T15:53:08;96901.25;;;0.86;100.00
42001;BME280;27689;48.390;10.856;2023-01-28T15:56:13;96910.91;;;0.81;100.00
42001;BME280;27689;48.390;10.856;2023-01-28T15:59:18;96912.16;;;0.73;100.00
42001;BME280;27689;48.390;10.856;2023-01-28T16:02:23;96927.13;;;0.64;100.00
42001;BME280;27689;48.390;10.856;2023-01-28T16:05:24;96924.59;;;0.63;100.00
42001;BME280;27689;48.390;10.856;2023-01-28T16:08:28;96918.00;;;0.57;100.00
42001;BME280;27689;48.390;10.856;2023-01-28T16:11:21;96924.66;;;0.61;100.00